createdAt,value
2018-03-02T00:00:23.703Z,49.12
2018-03-02T00:01:04.210Z,49.41
2018-03-02T00:01:44.726Z,49.12
2018-03-02T00:02:25.228Z,48.93
2018-03-02T00:03:05.750Z,48.93
2018-03-02T00:03:46.250Z,49.12
2018-03-02T00:04:27.173Z,48.93
2018-03-02T00:05:07.734Z,48.93
2018-03-02T00:05:48.312Z,48.74
2018-03-02T00:06:28.790Z,48.74
2018-03-02T00:07:09.307Z,49.22
2018-03-02T00:07:49.771Z,49.22
2018-03-02T00:08:30.288Z,49.31
2018-03-02T00:09:10.803Z,49.5
2018-03-02T00:09:51.372Z,48.84
2018-03-02T00:10:31.846Z,49.5
2018-03-02T00:11:12.336Z,49.22
2018-03-02T00:11:52.948Z,49.41
2018-03-02T00:12:33.838Z,49.41
2018-03-02T00:13:14.361Z,49.5
2018-03-02T00:13:54.862Z,49.69
2018-03-02T00:14:35.356Z,49.79
2018-03-02T00:15:15.885Z,49.6
2018-03-02T00:15:56.390Z,49.6
2018-03-02T00:16:36.885Z,49.41
2018-03-02T00:17:17.418Z,49.22
2018-03-02T00:17:57.867Z,49.5
2018-03-02T00:18:39.286Z,49.6
2018-03-02T00:19:19.150Z,49.31
2018-03-02T00:19:59.689Z,49.22
2018-03-02T00:20:40.265Z,49.69
2018-03-02T00:21:20.665Z,49.29
2018-03-02T00:22:01.176Z,49.5
2018-03-02T00:22:41.680Z,49.88
2018-03-02T00:23:22.176Z,49.69
2018-03-02T00:24:02.702Z,49.79
2018-03-02T00:24:43.216Z,49.79
2018-03-02T00:25:23.703Z,50.07
2018-03-02T00:26:04.202Z,49.88
2018-03-02T00:26:44.724Z,49.95
2018-03-02T00:27:25.230Z,49.98
2018-03-02T00:28:05.753Z,50.26
2018-03-02T00:28:46.262Z,50.07
2018-03-02T00:29:26.767Z,50.26
2018-03-02T00:30:07.293Z,50.16
2018-03-02T00:30:47.823Z,49.79
2018-03-02T00:31:28.331Z,49.79
2018-03-02T00:32:08.868Z,49.79
2018-03-02T00:32:49.391Z,50.07
2018-03-02T00:33:29.904Z,50.07
2018-03-02T00:34:10.876Z,50.07
2018-03-02T00:34:51.089Z,50.26
2018-03-02T00:35:31.563Z,49.98
2018-03-02T00:36:12.123Z,50.07
2018-03-02T00:36:52.616Z,50.07
2018-03-02T00:37:33.141Z,50.16
2018-03-02T00:38:13.608Z,50.16
2018-03-02T00:38:54.097Z,50.07
2018-03-02T00:39:34.601Z,50.07
2018-03-02T00:40:15.113Z,50.26
2018-03-02T00:40:55.634Z,50.26
2018-03-02T00:41:36.223Z,50.16
2018-03-02T00:42:16.804Z,49.98
2018-03-02T00:42:57.296Z,49.79
2018-03-02T00:43:37.796Z,49.88
2018-03-02T00:45:37.756Z,50.26
2018-03-02T00:46:18.269Z,50.07
2018-03-02T00:46:58.796Z,50.26
2018-03-02T00:47:39.328Z,50.07
2018-03-02T00:48:19.823Z,50.16
2018-03-02T00:49:00.341Z,50.33
2018-03-02T00:49:40.879Z,50.54
2018-03-02T00:50:21.508Z,50.54
2018-03-02T00:51:02.058Z,50.07
2018-03-02T00:51:42.792Z,50.52
2018-03-02T00:52:23.380Z,50.04
2018-03-02T00:53:03.920Z,50.52
2018-03-02T00:53:44.433Z,50.9
2018-03-02T00:54:24.943Z,51.28
2018-03-02T00:55:05.449Z,51.18
2018-03-02T00:55:45.952Z,51.18
2018-03-02T00:56:26.488Z,50.9
2018-03-02T00:57:06.988Z,50.99
2018-03-02T00:57:47.503Z,50.99
2018-03-02T00:58:28.009Z,51.18
2018-03-02T00:59:09.323Z,51.09
2018-03-02T00:59:49.816Z,51.09
2018-03-02T01:00:30.298Z,50.99
2018-03-02T01:01:10.953Z,50.99
2018-03-02T01:01:51.599Z,51.28
2018-03-02T01:02:32.084Z,50.99
2018-03-02T01:03:12.618Z,51.18
2018-03-02T01:03:53.125Z,50.99
2018-03-02T01:04:33.638Z,50.99
2018-03-02T01:05:14.148Z,50.99
2018-03-02T01:05:54.636Z,51.09
2018-03-02T01:06:35.148Z,51.18
2018-03-02T01:07:15.635Z,50.99
2018-03-02T01:07:56.396Z,50.9
2018-03-02T01:08:37.198Z,50.99
2018-03-02T01:10:25.185Z,51.18
2018-03-02T01:11:05.696Z,51.28
2018-03-02T01:11:46.244Z,51.65
2018-03-02T01:13:36.042Z,51.18
2018-03-02T01:14:16.694Z,51.18
2018-03-02T01:14:57.250Z,51.46
2018-03-02T01:15:37.773Z,51.18
2018-03-02T01:16:18.309Z,51.37
2018-03-02T01:16:58.765Z,51.56
2018-03-02T01:17:39.316Z,51.58
2018-03-02T01:18:19.802Z,51.65
2018-03-02T01:19:00.255Z,50.99
2018-03-02T01:19:40.752Z,50.99
2018-03-02T01:20:21.246Z,50.99
2018-03-02T01:21:01.776Z,51.2
2018-03-02T01:21:42.241Z,51.11
2018-03-02T01:22:22.739Z,50.99
2018-03-02T01:23:03.347Z,50.99
2018-03-02T01:23:43.767Z,51.37
2018-03-02T01:24:24.229Z,51.46
2018-03-02T01:25:04.815Z,51.37
2018-03-02T01:25:45.325Z,51.65
2018-03-02T01:26:25.827Z,51.37
2018-03-02T01:27:06.315Z,51.65
2018-03-02T01:27:46.812Z,51.65
2018-03-02T01:28:27.310Z,51.58
2018-03-02T01:29:07.819Z,50.99
2018-03-02T01:29:48.336Z,51.09
2018-03-02T01:30:28.855Z,51.09
2018-03-02T01:31:09.486Z,51.28
2018-03-02T01:31:49.861Z,51.09
2018-03-02T01:32:30.330Z,50.73
2018-03-02T01:33:10.788Z,51.11
2018-03-02T01:33:51.268Z,51.11
2018-03-02T01:34:31.747Z,51.09
2018-03-02T01:35:12.241Z,50.99
2018-03-02T01:35:52.744Z,51.18
2018-03-02T01:36:33.226Z,51.37
2018-03-02T01:37:13.729Z,51.28
2018-03-02T01:37:54.346Z,51.37
2018-03-02T01:38:34.880Z,51.75
2018-03-02T01:39:15.392Z,51.84
2018-03-02T01:39:55.838Z,52.41
2018-03-02T01:40:36.369Z,51.65
2018-03-02T01:41:16.872Z,51.65
2018-03-02T01:41:57.355Z,51.3
2018-03-02T01:42:37.884Z,51.56
2018-03-02T01:43:18.378Z,51.46
2018-03-02T01:43:59.042Z,51.28
2018-03-02T01:44:39.345Z,51.49
2018-03-02T01:45:19.889Z,51.37
2018-03-02T01:46:00.363Z,51.58
2018-03-02T01:46:40.893Z,51.49
2018-03-02T01:47:21.397Z,51.3
2018-03-02T01:48:01.867Z,51.2
2018-03-02T01:48:42.367Z,51.77
2018-03-02T01:49:22.858Z,51.68
2018-03-02T01:50:03.289Z,51.28
2018-03-02T01:50:43.856Z,51.3
2018-03-02T01:51:24.329Z,51.01
2018-03-02T01:52:04.802Z,50.82
2018-03-02T01:52:45.288Z,51.09
2018-03-02T01:53:25.935Z,51.18
2018-03-02T01:54:06.430Z,51.46
2018-03-02T01:54:46.973Z,51.49
2018-03-02T01:55:27.454Z,51.46
2018-03-02T01:56:07.963Z,51.58
2018-03-02T01:56:48.437Z,51.46
2018-03-02T01:57:28.944Z,51.58
2018-03-02T01:58:09.708Z,51.37
2018-03-02T01:58:50.300Z,51.37
2018-03-02T01:59:30.718Z,51.49
2018-03-02T02:00:11.170Z,51.28
2018-03-02T02:00:51.669Z,51.18
2018-03-02T02:02:51.623Z,51.58
2018-03-02T02:03:32.112Z,51.56
2018-03-02T02:04:12.604Z,51.58
2018-03-02T02:04:53.112Z,51.46
2018-03-02T02:05:33.643Z,51.37
2018-03-02T02:06:14.133Z,51.37
2018-03-02T02:06:54.671Z,51.28
2018-03-02T02:07:35.171Z,52.31
2018-03-02T02:08:15.668Z,52.31
2018-03-02T02:08:56.173Z,51.84
2018-03-02T02:09:36.676Z,51.84
2018-03-02T02:10:17.186Z,51.65
2018-03-02T02:10:57.711Z,51.93
2018-03-02T02:11:38.215Z,52.12
2018-03-02T02:12:18.739Z,52.12
2018-03-02T02:12:59.236Z,52.31
2018-03-02T02:13:39.764Z,52.12
2018-03-02T02:14:20.227Z,51.93
2018-03-02T02:15:00.722Z,51.93
2018-03-02T02:15:41.235Z,52.31
2018-03-02T02:16:21.753Z,52.22
2018-03-02T02:17:02.252Z,52.03
2018-03-02T02:17:42.741Z,52.03
2018-03-02T02:18:23.253Z,52.5
2018-03-02T02:19:03.768Z,52.41
2018-03-02T02:19:44.288Z,52.03
2018-03-02T02:20:24.801Z,52.03
2018-03-02T02:21:05.332Z,52.12
2018-03-02T02:21:45.836Z,51.84
2018-03-02T02:22:26.350Z,52.22
2018-03-02T02:23:06.853Z,52.12
2018-03-02T02:23:47.362Z,52.22
2018-03-02T02:24:27.871Z,52.5
2018-03-02T02:25:08.388Z,52.6
2018-03-02T02:25:48.913Z,52.6
2018-03-02T02:26:29.430Z,52.31
2018-03-02T02:27:09.936Z,52.12
2018-03-02T02:27:50.442Z,52.22
2018-03-02T02:28:30.972Z,51.84
2018-03-02T02:29:11.483Z,52.03
2018-03-02T02:29:52.001Z,52.15
2018-03-02T02:30:32.516Z,52.5
2018-03-02T02:31:13.035Z,52.22
2018-03-02T02:31:53.531Z,52.22
2018-03-02T02:32:34.053Z,52.12
2018-03-02T02:33:14.569Z,52.03
2018-03-02T02:33:55.088Z,52.03
2018-03-02T02:34:35.583Z,52.12
2018-03-02T02:35:16.094Z,52.03
2018-03-02T02:35:56.603Z,52.12
2018-03-02T02:36:37.116Z,52.03
2018-03-02T02:37:17.626Z,51.75
2018-03-02T02:37:58.138Z,52.12
2018-03-02T02:38:38.653Z,52.15
2018-03-02T02:39:19.170Z,52.22
2018-03-02T02:39:59.681Z,52.03
2018-03-02T02:40:40.181Z,52.03
2018-03-02T02:41:20.693Z,52.03
2018-03-02T02:42:01.213Z,52.22
2018-03-02T02:42:41.714Z,52.44
2018-03-02T02:43:22.215Z,52.6
2018-03-02T02:44:02.721Z,52.31
2018-03-02T02:44:43.234Z,52.03
2018-03-02T02:45:23.746Z,52.41
2018-03-02T02:46:04.244Z,51.77
2018-03-02T02:46:44.753Z,52.15
2018-03-02T02:47:25.281Z,52.34
2018-03-02T02:48:05.777Z,52.41
2018-03-02T02:48:46.316Z,52.12
2018-03-02T02:49:26.826Z,51.75
2018-03-02T02:50:07.335Z,52.12
2018-03-02T02:50:47.839Z,52.41
2018-03-02T02:51:28.378Z,52.88
2018-03-02T02:52:08.896Z,53.17
2018-03-02T02:52:49.398Z,53.64
2018-03-02T02:53:29.915Z,53.36
2018-03-02T02:54:10.438Z,53.74
2018-03-02T02:54:50.951Z,53.74
2018-03-02T02:55:31.472Z,53.26
2018-03-02T02:56:11.994Z,53.36
2018-03-02T02:56:52.499Z,53.36
2018-03-02T02:57:32.999Z,53.74
2018-03-02T02:58:13.507Z,53.83
2018-03-02T02:58:54.021Z,53.92
2018-03-02T02:59:34.535Z,54.11
2018-03-02T03:00:15.030Z,54.02
2018-03-02T03:00:55.546Z,53.92
2018-03-02T03:01:36.051Z,53.83
2018-03-02T03:02:16.548Z,53.64
2018-03-02T03:02:57.100Z,53.45
2018-03-02T03:03:37.597Z,53.45
2018-03-02T03:04:18.107Z,53.45
2018-03-02T03:04:58.649Z,53.55
2018-03-02T03:05:39.151Z,53.74
2018-03-02T03:06:19.653Z,53.74
2018-03-02T03:07:00.160Z,53.17
2018-03-02T03:07:40.769Z,53.36
2018-03-02T03:08:21.292Z,53.55
2018-03-02T03:09:01.794Z,53.83
2018-03-02T03:09:42.357Z,53.36
2018-03-02T03:10:22.877Z,53.17
2018-03-02T03:11:03.390Z,53.55
2018-03-02T03:11:43.959Z,53.36
2018-03-02T03:12:24.517Z,53.74
2018-03-02T03:13:05.027Z,53.64
2018-03-02T03:13:45.532Z,53.55
2018-03-02T03:14:26.046Z,53.36
2018-03-02T03:15:06.556Z,53.55
2018-03-02T03:15:47.073Z,53.55
2018-03-02T03:16:27.613Z,54.11
2018-03-02T03:17:08.116Z,53.64
2018-03-02T03:17:48.635Z,53.55
2018-03-02T03:18:29.151Z,53.45
2018-03-02T03:19:09.660Z,53.55
2018-03-02T03:19:50.179Z,53.17
2018-03-02T03:20:30.694Z,53.26
2018-03-02T03:21:11.223Z,53.26
2018-03-02T03:21:51.730Z,53.74
2018-03-02T03:22:32.239Z,53.17
2018-03-02T03:23:12.757Z,53.92
2018-03-02T03:23:53.272Z,53.74
2018-03-02T03:24:33.782Z,53.74
2018-03-02T03:25:14.296Z,53.83
2018-03-02T03:25:54.802Z,53.74
2018-03-02T03:26:35.305Z,54.02
2018-03-02T03:27:15.811Z,53.92
2018-03-02T03:27:56.328Z,53.74
2018-03-02T03:28:36.867Z,53.64
2018-03-02T03:29:17.365Z,53.74
2018-03-02T03:29:57.878Z,53.55
2018-03-02T03:30:38.399Z,53.92
2018-03-02T03:31:18.927Z,53.83
2018-03-02T03:31:59.463Z,53.83
2018-03-02T03:32:39.977Z,54.08
2018-03-02T03:33:20.486Z,54.46
2018-03-02T03:34:00.990Z,54.77
2018-03-02T03:34:41.500Z,54.77
2018-03-02T03:35:22.032Z,54.3
2018-03-02T03:36:02.551Z,54.84
2018-03-02T03:36:43.054Z,54.65
2018-03-02T03:37:23.567Z,54.65
2018-03-02T03:38:04.071Z,54.65
2018-03-02T03:38:44.607Z,54.55
2018-03-02T03:39:25.112Z,54.55
2018-03-02T03:40:05.620Z,55.31
2018-03-02T03:40:46.136Z,55.22
2018-03-02T03:41:26.645Z,55.12
2018-03-02T03:42:07.167Z,55.41
2018-03-02T03:42:47.689Z,54.46
2018-03-02T03:43:28.759Z,55.5
2018-03-02T03:44:09.260Z,55.41
2018-03-02T03:44:49.790Z,55.03
2018-03-02T03:45:30.324Z,55.41
2018-03-02T03:46:10.823Z,55.41
2018-03-02T03:46:51.375Z,55.6
2018-03-02T03:47:31.891Z,55.69
2018-03-02T03:48:12.392Z,55.41
2018-03-02T03:48:52.898Z,55.5
2018-03-02T03:49:33.427Z,55.41
2018-03-02T03:50:13.930Z,54.84
2018-03-02T03:50:54.457Z,55.03
2018-03-02T03:51:34.972Z,55.22
2018-03-02T03:52:15.474Z,54.84
2018-03-02T03:52:55.990Z,55.41
2018-03-02T03:53:36.498Z,55.03
2018-03-02T03:54:17.056Z,55.12
2018-03-02T03:54:57.560Z,55.12
2018-03-02T03:55:38.077Z,55.22
2018-03-02T03:56:18.589Z,55.12
2018-03-02T03:56:59.126Z,54.74
2018-03-02T03:57:39.654Z,54.93
2018-03-02T03:58:20.229Z,54.65
2018-03-02T04:00:08.194Z,54.55
2018-03-02T04:00:48.701Z,54.37
2018-03-02T04:01:29.223Z,54.84
2018-03-02T04:02:09.719Z,54.74
2018-03-02T04:02:50.240Z,54.46
2018-03-02T04:03:30.776Z,54.74
2018-03-02T04:04:11.270Z,54.55
2018-03-02T04:04:51.788Z,55.03
2018-03-02T04:05:32.319Z,55.41
2018-03-02T04:06:12.832Z,55.6
2018-03-02T04:06:53.350Z,55.5
2018-03-02T04:07:33.868Z,55.69
2018-03-02T04:08:14.370Z,56.23
2018-03-02T04:08:54.882Z,56.35
2018-03-02T04:09:35.387Z,56.16
2018-03-02T04:10:15.897Z,56.13
2018-03-02T04:10:56.419Z,56.8
2018-03-02T04:11:36.923Z,56.8
2018-03-02T04:12:17.428Z,57.08
2018-03-02T04:12:57.953Z,56.61
2018-03-02T04:13:38.458Z,56.45
2018-03-02T04:14:18.967Z,56.82
2018-03-02T04:14:59.488Z,56.45
2018-03-02T04:15:40.010Z,56.45
2018-03-02T04:16:20.518Z,56.35
2018-03-02T04:17:01.043Z,56.16
2018-03-02T04:17:41.569Z,55.88
2018-03-02T04:18:22.080Z,56.07
2018-03-02T04:19:02.600Z,56.16
2018-03-02T04:19:43.108Z,56.26
2018-03-02T04:20:23.602Z,56.8
2018-03-02T04:21:04.116Z,56.8
2018-03-02T04:21:44.623Z,56.63
2018-03-02T04:22:25.136Z,56.82
2018-03-02T04:23:05.661Z,56.26
2018-03-02T04:23:46.164Z,56.63
2018-03-02T04:24:26.673Z,55.98
2018-03-02T04:25:07.181Z,55.98
2018-03-02T04:25:47.687Z,55.69
2018-03-02T04:26:28.193Z,56.07
2018-03-02T04:27:08.702Z,55.69
2018-03-02T04:27:49.214Z,55.12
2018-03-02T04:28:29.731Z,55.69
2018-03-02T04:29:10.254Z,55.5
2018-03-02T04:29:50.764Z,55.5
2018-03-02T04:30:31.246Z,55.31
2018-03-02T04:31:11.760Z,55.69
2018-03-02T04:31:52.267Z,55.6
2018-03-02T04:32:32.767Z,55.22
2018-03-02T04:33:13.272Z,55.22
2018-03-02T04:33:53.771Z,54.93
2018-03-02T04:34:34.290Z,55.12
2018-03-02T04:35:14.813Z,55.88
2018-03-02T04:35:55.330Z,55.6
2018-03-02T04:36:35.837Z,55.79
2018-03-02T04:37:16.346Z,55.41
2018-03-02T04:37:56.945Z,55.88
2018-03-02T04:38:37.456Z,55.69
2018-03-02T04:39:17.994Z,55.6
2018-03-02T04:39:58.472Z,55.98
2018-03-02T04:40:39.003Z,55.6
2018-03-02T04:41:19.511Z,55.88
2018-03-02T04:43:14.345Z,56.16
2018-03-02T04:43:54.847Z,55.88
2018-03-02T04:44:35.344Z,55.88
2018-03-02T04:45:15.849Z,55.79
2018-03-02T04:45:56.390Z,55.22
2018-03-02T04:46:36.898Z,55.31
2018-03-02T04:47:17.408Z,55.79
2018-03-02T04:47:57.919Z,55.5
2018-03-02T04:48:38.412Z,55.6
2018-03-02T04:49:18.934Z,55.79
2018-03-02T04:49:59.448Z,56.45
2018-03-02T04:50:39.941Z,56.26
2018-03-02T04:51:20.459Z,56.35
2018-03-02T04:52:00.963Z,56.07
2018-03-02T04:52:41.498Z,56.07
2018-03-02T04:53:21.988Z,55.98
2018-03-02T04:54:02.479Z,55.6
2018-03-02T04:54:42.999Z,55.31
2018-03-02T04:55:23.514Z,55.41
2018-03-02T04:56:04.011Z,55.22
2018-03-02T04:56:44.527Z,55.22
2018-03-02T04:57:25.020Z,55.41
2018-03-02T04:58:05.533Z,55.22
2018-03-02T04:58:46.025Z,55.5
2018-03-02T04:59:26.524Z,54.65
2018-03-02T05:00:07.033Z,54.55
2018-03-02T05:00:47.531Z,54.74
2018-03-02T05:01:28.059Z,55.31
2018-03-02T05:02:08.535Z,55.12
2018-03-02T05:02:49.012Z,54.93
2018-03-02T05:03:29.511Z,55.41
2018-03-02T05:04:10.028Z,55.5
2018-03-02T05:04:50.520Z,55.41
2018-03-02T05:05:31.024Z,55.5
2018-03-02T05:06:11.502Z,55.5
2018-03-02T05:06:52.021Z,55.6
2018-03-02T05:07:32.530Z,55.6
2018-03-02T05:08:13.030Z,55.31
2018-03-02T05:08:53.569Z,55.41
2018-03-02T05:09:34.060Z,55.41
2018-03-02T05:10:14.573Z,55.69
2018-03-02T05:10:55.055Z,55.6
2018-03-02T05:11:35.563Z,55.88
2018-03-02T05:12:16.057Z,55.69
2018-03-02T05:12:56.560Z,55.38
2018-03-02T05:13:37.060Z,56.51
2018-03-02T05:14:17.571Z,56.42
2018-03-02T05:14:58.062Z,56.51
2018-03-02T05:15:38.563Z,56.8
2018-03-02T05:16:19.094Z,56.42
2018-03-02T05:16:59.563Z,56.42
2018-03-02T05:17:40.056Z,56.8
2018-03-02T05:18:20.594Z,56.99
2018-03-02T05:19:01.083Z,56.8
2018-03-02T05:21:00.996Z,56.7
2018-03-02T05:21:41.510Z,56.8
2018-03-02T05:22:22.023Z,56.89
2018-03-02T05:23:02.523Z,57.18
2018-03-02T05:23:43.036Z,56.99
2018-03-02T05:24:23.553Z,57.08
2018-03-02T05:25:04.087Z,57.18
2018-03-02T05:25:44.598Z,56.89
2018-03-02T05:26:25.095Z,56.99
2018-03-02T05:27:05.589Z,56.99
2018-03-02T05:27:46.112Z,56.99
2018-03-02T05:28:26.605Z,56.99
2018-03-02T05:29:07.093Z,56.89
2018-03-02T05:29:47.620Z,57.18
2018-03-02T05:30:28.121Z,58.03
2018-03-02T05:31:08.645Z,58.03
2018-03-02T05:31:49.148Z,57.18
2018-03-02T05:32:29.664Z,57.27
2018-03-02T05:33:10.192Z,57.55
2018-03-02T05:33:50.728Z,57.55
2018-03-02T05:34:31.328Z,57.65
2018-03-02T05:35:11.840Z,57.27
2018-03-02T05:35:52.335Z,57.46
2018-03-02T05:36:32.844Z,57.46
2018-03-02T05:37:13.340Z,57.74
2018-03-02T05:37:53.933Z,57.65
2018-03-02T05:38:34.419Z,57.55
2018-03-02T05:40:47.639Z,57.46
2018-03-02T05:41:28.145Z,57.93
2018-03-02T05:42:08.657Z,57.55
2018-03-02T05:42:49.123Z,57.74
2018-03-02T05:43:29.644Z,57.65
2018-03-02T05:44:10.140Z,57.27
2018-03-02T05:44:50.648Z,57.27
2018-03-02T05:45:31.163Z,57.08
2018-03-02T05:46:11.677Z,56.99
2018-03-02T05:46:52.219Z,56.8
2018-03-02T05:47:32.717Z,56.7
2018-03-02T05:48:13.214Z,57.08
2018-03-02T05:48:53.714Z,56.7
2018-03-02T05:49:34.212Z,57.08
2018-03-02T05:50:14.685Z,56.8
2018-03-02T05:50:55.183Z,56.99
2018-03-02T05:51:35.797Z,57.37
2018-03-02T05:52:16.310Z,57.27
2018-03-02T05:52:56.800Z,57.37
2018-03-02T05:53:37.313Z,57.37
2018-03-02T05:54:17.810Z,57.55
2018-03-02T05:54:58.312Z,57.74
2018-03-02T05:55:38.794Z,57.08
2018-03-02T05:56:19.297Z,57.27
2018-03-02T05:56:59.852Z,57.08
2018-03-02T05:57:40.350Z,56.99
2018-03-02T05:58:20.838Z,57.27
2018-03-02T05:59:01.362Z,57.37
2018-03-02T05:59:41.866Z,57.37
2018-03-02T06:00:22.341Z,57.18
2018-03-02T06:01:02.831Z,57.84
2018-03-02T06:01:43.339Z,57.93
2018-03-02T06:02:23.916Z,58.03
2018-03-02T06:03:04.618Z,57.93
2018-03-02T06:03:45.104Z,57.74
2018-03-02T06:04:25.738Z,58.03
2018-03-02T06:05:06.208Z,57.84
2018-03-02T06:05:46.701Z,57.93
2018-03-02T06:06:27.206Z,58.12
2018-03-02T06:07:07.729Z,58.22
2018-03-02T06:07:48.242Z,58.31
2018-03-02T06:08:28.744Z,58.22
2018-03-02T06:09:09.251Z,58.4
2018-03-02T06:09:49.764Z,58.12
2018-03-02T06:10:30.312Z,58.03
2018-03-02T06:11:10.845Z,57.84
2018-03-02T06:11:51.362Z,57.84
2018-03-02T06:12:31.863Z,58.03
2018-03-02T06:13:12.371Z,57.55
2018-03-02T06:13:52.899Z,57.27
2018-03-02T06:14:33.372Z,57.65
2018-03-02T06:15:13.868Z,57.37
2018-03-02T06:15:54.372Z,57.08
2018-03-02T06:16:34.952Z,57.08
2018-03-02T06:17:15.417Z,57.46
2018-03-02T06:17:56.022Z,57.96
2018-03-02T06:18:36.526Z,57.74
2018-03-02T06:19:17.053Z,57.27
2018-03-02T06:19:57.573Z,57.27
2018-03-02T06:20:38.076Z,56.92
2018-03-02T06:21:18.588Z,57.3
2018-03-02T06:21:59.121Z,57.96
2018-03-02T06:22:39.667Z,58.4
2018-03-02T06:23:20.149Z,58.12
2018-03-02T06:25:33.592Z,58.03
2018-03-02T06:26:14.098Z,57.84
2018-03-02T06:26:54.591Z,57.84
2018-03-02T06:27:35.103Z,57.84
2018-03-02T06:28:15.608Z,58.22
2018-03-02T06:28:56.145Z,57.93
2018-03-02T06:29:36.643Z,58.22
2018-03-02T06:30:17.140Z,57.93
2018-03-02T06:30:57.642Z,58.22
2018-03-02T06:31:38.172Z,58.12
2018-03-02T06:32:18.686Z,58.5
2018-03-02T06:32:59.204Z,57.93
2018-03-02T06:33:39.715Z,58.03
2018-03-02T06:34:20.212Z,58.5
2018-03-02T06:35:00.728Z,57.96
2018-03-02T06:35:41.241Z,57.58
2018-03-02T06:36:21.731Z,57.11
2018-03-02T06:37:02.273Z,56.92
2018-03-02T06:37:42.756Z,57.01
2018-03-02T06:38:23.271Z,56.73
2018-03-02T06:39:03.777Z,56.42
2018-03-02T06:39:44.296Z,57.01
2018-03-02T06:40:24.798Z,56.61
2018-03-02T06:41:05.330Z,56.82
2018-03-02T06:41:45.838Z,56.8
2018-03-02T06:42:27.273Z,56.99
2018-03-02T06:43:06.852Z,56.99
2018-03-02T06:43:47.388Z,56.8
2018-03-02T06:44:27.879Z,56.99
2018-03-02T06:45:08.401Z,56.42
2018-03-02T06:45:48.924Z,56.8
2018-03-02T06:46:29.443Z,56.82
2018-03-02T06:47:09.956Z,56.7
2018-03-02T06:47:50.481Z,56.7
2018-03-02T06:48:30.988Z,57.27
2018-03-02T06:49:11.503Z,57.93
2018-03-02T06:49:52.016Z,58.12
2018-03-02T06:50:32.530Z,58.12
2018-03-02T06:51:13.044Z,57.93
2018-03-02T06:51:53.544Z,57.84
2018-03-02T06:52:34.047Z,57.84
2018-03-02T06:53:14.550Z,58.12
2018-03-02T06:53:55.059Z,58.03
2018-03-02T06:54:35.590Z,57.84
2018-03-02T06:55:16.106Z,58.31
2018-03-02T06:55:56.635Z,58.31
2018-03-02T06:56:37.143Z,58.31
2018-03-02T06:57:17.678Z,58.31
2018-03-02T06:57:58.199Z,58.31
2018-03-02T06:58:38.720Z,57.74
2018-03-02T06:59:19.223Z,57.93
2018-03-02T06:59:59.745Z,58.03
2018-03-02T07:00:40.268Z,58.4
2018-03-02T07:01:20.753Z,58.4
2018-03-02T07:02:01.269Z,57.74
2018-03-02T07:02:41.764Z,58.31
2018-03-02T07:03:22.321Z,58.5
2018-03-02T07:04:02.821Z,58.97
2018-03-02T07:04:43.332Z,58.4
2018-03-02T07:05:23.877Z,58.03
2018-03-02T07:06:04.380Z,57.96
2018-03-02T07:06:44.899Z,58.44
2018-03-02T07:07:25.397Z,57.77
2018-03-02T07:08:05.904Z,57.49
2018-03-02T07:08:46.416Z,58.91
2018-03-02T07:09:26.919Z,60.7
2018-03-02T07:10:07.436Z,60.23
2018-03-02T07:10:48.001Z,58.53
2018-03-02T07:11:28.504Z,59
2018-03-02T07:12:08.994Z,58.91
2018-03-02T07:12:49.522Z,58.15
2018-03-02T07:13:30.027Z,58.06
2018-03-02T07:14:10.545Z,61.36
2018-03-02T07:14:51.049Z,61.93
2018-03-02T07:15:31.656Z,60.61
2018-03-02T07:16:12.294Z,60.23
2018-03-02T07:16:52.798Z,59.19
2018-03-02T07:17:33.348Z,57.96
2018-03-02T07:18:13.850Z,57.01
2018-03-02T07:18:54.351Z,58.06
2018-03-02T07:19:34.862Z,59.09
2018-03-02T07:20:15.393Z,58.91
2018-03-02T07:20:55.899Z,62.02
2018-03-02T07:21:36.400Z,64.48
2018-03-02T07:22:16.914Z,63.73
2018-03-02T07:22:57.463Z,62.21
2018-03-02T07:23:37.954Z,61.08
2018-03-02T07:24:18.503Z,59.28
2018-03-02T07:24:59.008Z,58.72
2018-03-02T07:25:39.502Z,58.34
2018-03-02T07:26:20.009Z,82.21
2018-03-02T07:27:01.217Z,93.47
2018-03-02T07:27:41.149Z,98.58
2018-03-02T07:28:21.600Z,99.99
2018-03-02T07:29:02.107Z,99.99
2018-03-02T07:29:43.178Z,99.99
2018-03-02T07:30:23.705Z,99.99
2018-03-02T07:31:04.227Z,99.99
2018-03-02T07:31:44.707Z,98.01
2018-03-02T07:32:25.280Z,84.53
2018-03-02T07:33:05.827Z,76.02
2018-03-02T07:33:47.265Z,71.11
2018-03-02T07:34:28.724Z,67.22
2018-03-02T07:35:08.550Z,64.96
2018-03-02T07:35:49.085Z,62.69
2018-03-02T07:36:29.593Z,61.65
2018-03-02T07:37:10.129Z,60.52
2018-03-02T07:37:50.632Z,59.95
2018-03-02T07:38:31.126Z,59.38
2018-03-02T07:39:11.644Z,59
2018-03-02T07:39:52.162Z,58.53
2018-03-02T07:40:32.656Z,58.06
2018-03-02T07:41:13.226Z,58.34
2018-03-02T07:41:53.724Z,57.96
2018-03-02T07:42:34.212Z,58.15
2018-03-02T07:43:14.724Z,58.5
2018-03-02T07:43:55.231Z,58.12
2018-03-02T07:44:35.738Z,58.59
2018-03-02T07:45:16.252Z,58.12
2018-03-02T07:45:56.758Z,59.06
2018-03-02T07:46:37.280Z,59.44
2018-03-02T07:47:17.787Z,59.09
2018-03-02T07:47:58.302Z,58.53
2018-03-02T07:48:38.851Z,58.53
2018-03-02T07:49:19.332Z,58.59
2018-03-02T07:49:59.858Z,60.33
2018-03-02T07:50:40.375Z,59.47
2018-03-02T07:51:20.927Z,59.28
2018-03-02T07:52:01.410Z,59.19
2018-03-02T07:52:41.929Z,59
2018-03-02T07:53:22.447Z,58.53
2018-03-02T07:54:02.977Z,58.25
2018-03-02T07:54:43.553Z,57.87
2018-03-02T07:56:41.727Z,61.93
2018-03-02T07:57:22.303Z,61.55
2018-03-02T07:58:03.584Z,60.14
2018-03-02T07:58:44.093Z,58.62
2018-03-02T07:59:24.600Z,58.06
2018-03-02T08:00:05.129Z,57.01
2018-03-02T08:00:45.641Z,56.73
2018-03-02T08:01:26.669Z,57.01
2018-03-02T08:02:07.114Z,58.44
2018-03-02T08:02:47.625Z,59.28
2018-03-02T08:03:28.151Z,62.02
2018-03-02T08:04:08.669Z,60.89
2018-03-02T08:04:49.181Z,60.89
2018-03-02T08:05:29.691Z,60.04
2018-03-02T08:06:10.206Z,59
2018-03-02T08:06:50.738Z,59.38
2018-03-02T08:09:09.192Z,64.01
2018-03-02T08:09:49.747Z,64.58
2018-03-02T08:10:30.297Z,69.59
2018-03-02T08:11:10.815Z,79.94
2018-03-02T08:11:51.316Z,88.74
2018-03-02T08:12:31.832Z,99.99
2018-03-02T08:13:12.434Z,99.99
2018-03-02T08:13:52.950Z,98.1
2018-03-02T08:14:33.460Z,99.99
2018-03-02T08:15:13.959Z,94.6
2018-03-02T08:15:54.466Z,99.99
2018-03-02T08:16:35.040Z,92.99
2018-03-02T08:17:15.515Z,82.21
2018-03-02T08:17:56.028Z,74.07
2018-03-02T08:18:36.553Z,71.71
2018-03-02T08:19:17.202Z,67.93
2018-03-02T08:19:57.711Z,64.14
2018-03-02T08:20:38.228Z,61.96
2018-03-02T08:21:18.752Z,61.77
2018-03-02T08:21:59.352Z,61.49
2018-03-02T08:22:39.955Z,60.07
2018-03-02T08:23:20.418Z,59.28
2018-03-02T08:24:00.915Z,69.82
2018-03-02T08:24:41.425Z,88.64
2018-03-02T08:25:21.953Z,84.86
2018-03-02T08:26:02.547Z,80.13
2018-03-02T08:26:43.029Z,99.99
2018-03-02T08:27:23.564Z,99.99
2018-03-02T08:28:04.196Z,93.75
2018-03-02T08:28:44.885Z,89.87
2018-03-02T08:29:25.334Z,81.07
2018-03-02T08:30:06.859Z,83.53
2018-03-02T08:30:47.364Z,74.07
2018-03-02T08:31:27.854Z,67.45
2018-03-02T08:32:08.374Z,64.04
2018-03-02T08:32:48.901Z,61.3
2018-03-02T08:33:29.419Z,59.31
2018-03-02T08:34:09.959Z,58.34
2018-03-02T08:34:50.450Z,58.34
2018-03-02T08:35:30.966Z,57.58
2018-03-02T08:36:11.475Z,57.11
2018-03-02T08:36:51.993Z,56.92
2018-03-02T08:37:32.475Z,56.57
2018-03-02T08:38:13.783Z,56.92
2018-03-02T08:38:53.562Z,57.3
2018-03-02T08:39:34.037Z,58.18
2018-03-02T08:40:14.454Z,59.41
2018-03-02T08:40:54.933Z,58.84
2018-03-02T08:41:35.377Z,59.31
2018-03-02T08:42:15.886Z,58.94
2018-03-02T08:42:56.393Z,58.28
2018-03-02T08:43:36.957Z,58.18
2018-03-02T08:44:17.469Z,57.71
2018-03-02T08:44:57.985Z,60.55
2018-03-02T08:45:38.499Z,61.87
2018-03-02T08:46:18.992Z,60.74
2018-03-02T08:46:59.494Z,59.22
2018-03-02T08:47:40.048Z,60.17
2018-03-02T08:48:20.574Z,59.03
2018-03-02T08:49:01.125Z,57.99
2018-03-02T08:49:41.590Z,57.9
2018-03-02T08:50:22.090Z,57.8
2018-03-02T08:51:02.608Z,73.98
2018-03-02T08:51:43.288Z,92.33
2018-03-02T08:52:23.874Z,88.26
2018-03-02T08:53:04.406Z,98.01
2018-03-02T08:53:44.940Z,99.99
2018-03-02T08:54:25.453Z,99.99
2018-03-02T08:55:05.985Z,99.99
2018-03-02T08:55:46.509Z,99.99
2018-03-02T08:56:27.024Z,93.51
2018-03-02T08:57:07.537Z,81.96
2018-03-02T08:57:48.213Z,74.3
2018-03-02T08:58:28.659Z,67.07